WAAA/UPG METAR and TAF weather

Enter ICAO airport designator
Station Type Date Time Source
WAAA METAR 2019/04/22 18:00 UTC NOAA

WAAA 221800Z 26006KT 7000 -RA FEW018CB SCT019 25/25 Q1008 NOSIG RMK CB IN APCH


Station Type Date Time Source
WAAA Decoded METAR 2019/04/22 18:00 UTC NOAA

Ujung Pandang / Hasanuddin, Indonesia (WAAA) 05-04S 119-33E 14M
Apr 22, 2019 - 02:00 PM EDT / 2019.04.22 1800 UTC
Wind: from the W (260 degrees) at 7 MPH (6 KT):0
Visibility: 4 mile(s):0
Sky conditions: partly cloudy
Weather: light rain; Cumulonimbus clouds observed
Temperature: 77 F (25 C)
Dew Point: 77 F (25 C)
Relative Humidity: 100%
Pressure (altimeter): 29.77 in. Hg (1008 hPa)
ob: WAAA 221800Z 26006KT 7000 -RA FEW018CB SCT019 25/25 Q1008 NOSIG RMK CB IN APCH
cycle: 18

Station Type Date Time Source
WAAA TAF 2019/04/22 18:08 UTC NOAA

TAF WAAA 221700Z 2218/2400 10004KT 6000 -RA FEW018CB SCT019
BECMG 2220/2222 9999 NSW
BECMG 2302/2304 31010KT FEW019

Example: see airport list